sensor_id;sensor_type;location;lat;lon;timestamp;pressure;altitude;pressure_sealevel;temperature;humidity
54172;BME280;40076;52.354;4.970;2023-04-08T00:00:06;102356.25;;;9.84;100.00
54172;BME280;40076;52.354;4.970;2023-04-08T00:02:32;102357.38;;;9.83;100.00
54172;BME280;40076;52.354;4.970;2023-04-08T00:04:57;102365.75;;;9.82;100.00
54172;BME280;40076;52.354;4.970;2023-04-08T00:07:23;102359.78;;;9.80;100.00
54172;BME280;40076;52.354;4.970;2023-04-08T00:09:48;102355.47;;;9.79;100.00
54172;BME280;40076;52.354;4.970;2023-04-08T00:12:14;102361.16;;;9.77;100.00
54172;BME280;40076;52.354;4.970;2023-04-08T00:14:39;102353.63;;;9.74;100.00
54172;BME280;40076;52.354;4.970;2023-04-08T00:17:05;102354.16;;;9.71;100.00
54172;BME280;40076;52.354;4.970;2023-04-08T00:19:31;102361.44;;;9.71;100.00
54172;BME280;40076;52.354;4.970;2023-04-08T00:21:57;102359.31;;;9.67;100.00
54172;BME280;40076;52.354;4.970;2023-04-08T00:24:23;102363.63;;;9.63;100.00
54172;BME280;40076;52.354;4.970;2023-04-08T00:26:48;102353.09;;;9.62;100.00
54172;BME280;40076;52.354;4.970;2023-04-08T00:29:14;102358.00;;;9.60;100.00
54172;BME280;40076;52.354;4.970;2023-04-08T00:31:39;102358.53;;;9.57;100.00
54172;BME280;40076;52.354;4.970;2023-04-08T00:34:05;102351.28;;;9.52;100.00
54172;BME280;40076;52.354;4.970;2023-04-08T00:36:31;102355.03;;;9.51;100.00
54172;BME280;40076;52.354;4.970;2023-04-08T00:38:56;102351.00;;;9.49;100.00
54172;BME280;40076;52.354;4.970;2023-04-08T00:41:21;102350.75;;;9.45;100.00
54172;BME280;40076;52.354;4.970;2023-04-08T00:43:46;102348.31;;;9.44;100.00
54172;BME280;40076;52.354;4.970;2023-04-08T00:46:12;102348.59;;;9.42;100.00
54172;BME280;40076;52.354;4.970;2023-04-08T00:48:37;102358.03;;;9.40;100.00
54172;BME280;40076;52.354;4.970;2023-04-08T00:51:03;102358.31;;;9.38;100.00
54172;BME280;40076;52.354;4.970;2023-04-08T00:53:30;102357.78;;;9.36;100.00
54172;BME280;40076;52.354;4.970;2023-04-08T00:55:55;102359.94;;;9.34;100.00
54172;BME280;40076;52.354;4.970;2023-04-08T00:58:20;102357.78;;;9.31;100.00
54172;BME280;40076;52.354;4.970;2023-04-08T01:00:54;102356.44;;;9.28;100.00
54172;BME280;40076;52.354;4.970;2023-04-08T01:03:28;102358.88;;;9.25;100.00
54172;BME280;40076;52.354;4.970;2023-04-08T01:06:07;102360.50;;;9.21;100.00
54172;BME280;40076;52.354;4.970;2023-04-08T01:08:37;102361.84;;;9.18;100.00
54172;BME280;40076;52.354;4.970;2023-04-08T01:11:09;102363.50;;;9.14;100.00
54172;BME280;40076;52.354;4.970;2023-04-08T01:13:39;102357.81;;;9.11;100.00
54172;BME280;40076;52.354;4.970;2023-04-08T01:16:06;102359.16;;;9.08;100.00
54172;BME280;40076;52.354;4.970;2023-04-08T01:18:34;102359.44;;;9.07;100.00
54172;BME280;40076;52.354;4.970;2023-04-08T01:21:01;102362.97;;;9.07;100.00
54172;BME280;40076;52.354;4.970;2023-04-08T01:23:53;102362.97;;;9.07;100.00
54172;BME280;40076;52.354;4.970;2023-04-08T01:26:24;102365.66;;;9.07;100.00
54172;BME280;40076;52.354;4.970;2023-04-08T01:28:53;102370.22;;;9.07;100.00
54172;BME280;40076;52.354;4.970;2023-04-08T01:31:21;102362.69;;;9.04;100.00
54172;BME280;40076;52.354;4.970;2023-04-08T01:33:48;102367.53;;;9.02;100.00
54172;BME280;40076;52.354;4.970;2023-04-08T01:36:15;102369.16;;;8.98;100.00
54172;BME280;40076;52.354;4.970;2023-04-08T01:38:43;102374.81;;;8.91;100.00
54172;BME280;40076;52.354;4.970;2023-04-08T01:41:10;102379.38;;;8.85;100.00
54172;BME280;40076;52.354;4.970;2023-04-08T01:43:38;102377.78;;;8.79;100.00
54172;BME280;40076;52.354;4.970;2023-04-08T01:46:05;102369.94;;;8.73;100.00
54172;BME280;40076;52.354;4.970;2023-04-08T01:48:30;102373.72;;;8.67;100.00
54172;BME280;40076;52.354;4.970;2023-04-08T01:50:56;102380.72;;;8.63;100.00
54172;BME280;40076;52.354;4.970;2023-04-08T01:53:23;102379.91;;;8.57;100.00
54172;BME280;40076;52.354;4.970;2023-04-08T01:55:55;102370.75;;;8.53;100.00
54172;BME280;40076;52.354;4.970;2023-04-08T01:58:23;102371.53;;;8.48;100.00
54172;BME280;40076;52.354;4.970;2023-04-08T02:00:52;102387.44;;;8.45;100.00
54172;BME280;40076;52.354;4.970;2023-04-08T02:03:20;102376.94;;;8.43;100.00
54172;BME280;40076;52.354;4.970;2023-04-08T02:05:47;102382.03;;;8.40;100.00
54172;BME280;40076;52.354;4.970;2023-04-08T02:08:12;102376.63;;;8.40;100.00
54172;BME280;40076;52.354;4.970;2023-04-08T02:10:37;102375.31;;;8.37;100.00
54172;BME280;40076;52.354;4.970;2023-04-08T02:13:03;102379.63;;;8.38;100.00
54172;BME280;40076;52.354;4.970;2023-04-08T02:15:33;102378.53;;;8.39;100.00
54172;BME280;40076;52.354;4.970;2023-04-08T02:18:12;102380.94;;;8.41;100.00
54172;BME280;40076;52.354;4.970;2023-04-08T02:20:43;102381.75;;;8.41;100.00
54172;BME280;40076;52.354;4.970;2023-04-08T02:23:21;102382.56;;;8.42;100.00
54172;BME280;40076;52.354;4.970;2023-04-08T02:25:48;102387.69;;;8.43;100.00
54172;BME280;40076;52.354;4.970;2023-04-08T02:28:17;102385.00;;;8.43;100.00
54172;BME280;40076;52.354;4.970;2023-04-08T02:30:47;102391.47;;;8.42;100.00
54172;BME280;40076;52.354;4.970;2023-04-08T02:33:13;102392.53;;;8.41;100.00
54172;BME280;40076;52.354;4.970;2023-04-08T02:35:40;102394.16;;;8.42;100.00
54172;BME280;40076;52.354;4.970;2023-04-08T02:38:06;102394.97;;;8.43;100.00
54172;BME280;40076;52.354;4.970;2023-04-08T02:40:32;102397.13;;;8.41;100.00
54172;BME280;40076;52.354;4.970;2023-04-08T02:42:59;102389.84;;;8.41;100.00
54172;BME280;40076;52.354;4.970;2023-04-08T02:45:35;102392.78;;;8.40;100.00
54172;BME280;40076;52.354;4.970;2023-04-08T02:48:02;102399.81;;;8.41;100.00
54172;BME280;40076;52.354;4.970;2023-04-08T02:50:27;102401.44;;;8.42;100.00
54172;BME280;40076;52.354;4.970;2023-04-08T02:52:54;102408.44;;;8.43;100.00
54172;BME280;40076;52.354;4.970;2023-04-08T02:55:19;102411.13;;;8.43;100.00
54172;BME280;40076;52.354;4.970;2023-04-08T02:57:47;102406.00;;;8.41;100.00
54172;BME280;40076;52.354;4.970;2023-04-08T03:00:13;102411.13;;;8.43;100.00
54172;BME280;40076;52.354;4.970;2023-04-08T03:02:39;102415.72;;;8.42;100.00
54172;BME280;40076;52.354;4.970;2023-04-08T03:05:04;102413.81;;;8.43;100.00
54172;BME280;40076;52.354;4.970;2023-04-08T03:07:31;102411.41;;;8.41;100.00
54172;BME280;40076;52.354;4.970;2023-04-08T03:09:56;102416.78;;;8.41;100.00
54172;BME280;40076;52.354;4.970;2023-04-08T03:12:21;102410.59;;;8.41;100.00
54172;BME280;40076;52.354;4.970;2023-04-08T03:14:47;102417.84;;;8.40;100.00
54172;BME280;40076;52.354;4.970;2023-04-08T03:17:13;102416.50;;;8.38;100.00
54172;BME280;40076;52.354;4.970;2023-04-08T03:19:38;102417.84;;;8.35;100.00
54172;BME280;40076;52.354;4.970;2023-04-08T03:22:03;102416.22;;;8.34;100.00
54172;BME280;40076;52.354;4.970;2023-04-08T03:24:29;102418.09;;;8.34;100.00
54172;BME280;40076;52.354;4.970;2023-04-08T03:26:54;102418.38;;;8.32;100.00
54172;BME280;40076;52.354;4.970;2023-04-08T03:29:19;102416.78;;;8.31;100.00
54172;BME280;40076;52.354;4.970;2023-04-08T03:31:45;102419.69;;;8.30;100.00
54172;BME280;40076;52.354;4.970;2023-04-08T03:34:10;102419.13;;;8.28;100.00
54172;BME280;40076;52.354;4.970;2023-04-08T03:36:35;102424.78;;;8.26;100.00
54172;BME280;40076;52.354;4.970;2023-04-08T03:39:00;102422.34;;;8.25;100.00
54172;BME280;40076;52.354;4.970;2023-04-08T03:41:28;102426.91;;;8.19;100.00
54172;BME280;40076;52.354;4.970;2023-04-08T03:43:53;102429.59;;;8.14;100.00
54172;BME280;40076;52.354;4.970;2023-04-08T03:46:18;102430.91;;;8.11;100.00
54172;BME280;40076;52.354;4.970;2023-04-08T03:48:44;102427.41;;;8.06;100.00
54172;BME280;40076;52.354;4.970;2023-04-08T03:51:09;102431.69;;;8.02;100.00
54172;BME280;40076;52.354;4.970;2023-04-08T03:53:34;102432.22;;;7.99;100.00
54172;BME280;40076;52.354;4.970;2023-04-08T03:56:00;102440.00;;;7.95;100.00
54172;BME280;40076;52.354;4.970;2023-04-08T03:58:26;102439.47;;;7.93;100.00
54172;BME280;40076;52.354;4.970;2023-04-08T04:00:52;102435.41;;;7.91;100.00
54172;BME280;40076;52.354;4.970;2023-04-08T04:03:17;102437.81;;;7.87;100.00
54172;BME280;40076;52.354;4.970;2023-04-08T04:05:43;102438.09;;;7.86;100.00
54172;BME280;40076;52.354;4.970;2023-04-08T04:08:09;102438.84;;;7.81;100.00
54172;BME280;40076;52.354;4.970;2023-04-08T04:10:34;102437.22;;;7.80;100.00
54172;BME280;40076;52.354;4.970;2023-04-08T04:13:00;102441.53;;;7.76;100.00
54172;BME280;40076;52.354;4.970;2023-04-08T04:15:25;102450.34;;;7.71;100.00
54172;BME280;40076;52.354;4.970;2023-04-08T04:17:51;102443.88;;;7.67;100.00
54172;BME280;40076;52.354;4.970;2023-04-08T04:20:17;102441.97;;;7.63;100.00
54172;BME280;40076;52.354;4.970;2023-04-08T04:22:43;102453.50;;;7.58;100.00
54172;BME280;40076;52.354;4.970;2023-04-08T04:25:08;102447.03;;;7.54;100.00
54172;BME280;40076;52.354;4.970;2023-04-08T04:27:34;102448.38;;;7.52;100.00
54172;BME280;40076;52.354;4.970;2023-04-08T04:30:00;102451.31;;;7.50;100.00
54172;BME280;40076;52.354;4.970;2023-04-08T04:32:26;102457.75;;;7.49;100.00
54172;BME280;40076;52.354;4.970;2023-04-08T04:34:51;102463.13;;;7.49;100.00
54172;BME280;40076;52.354;4.970;2023-04-08T04:37:16;102465.81;;;7.49;100.00
54172;BME280;40076;52.354;4.970;2023-04-08T04:39:42;102460.44;;;7.49;100.00
54172;BME280;40076;52.354;4.970;2023-04-08T04:42:08;102466.63;;;7.50;100.00
54172;BME280;40076;52.354;4.970;2023-04-08T04:44:33;102464.75;;;7.50;100.00
54172;BME280;40076;52.354;4.970;2023-04-08T04:46:58;102468.50;;;7.49;100.00
54172;BME280;40076;52.354;4.970;2023-04-08T04:49:23;102463.38;;;7.48;100.00
54172;BME280;40076;52.354;4.970;2023-04-08T04:51:49;102474.94;;;7.48;100.00
54172;BME280;40076;52.354;4.970;2023-04-08T04:54:14;102471.44;;;7.48;100.00
54172;BME280;40076;52.354;4.970;2023-04-08T04:56:40;102476.03;;;7.47;100.00
54172;BME280;40076;52.354;4.970;2023-04-08T04:59:05;102483.31;;;7.47;100.00
54172;BME280;40076;52.354;4.970;2023-04-08T05:01:32;102477.59;;;7.43;100.00
54172;BME280;40076;52.354;4.970;2023-04-08T05:03:58;102486.75;;;7.42;100.00
54172;BME280;40076;52.354;4.970;2023-04-08T05:06:23;102477.34;;;7.40;100.00
54172;BME280;40076;52.354;4.970;2023-04-08T05:08:48;102472.19;;;7.38;100.00
54172;BME280;40076;52.354;4.970;2023-04-08T05:11:15;102481.59;;;7.35;100.00
54172;BME280;40076;52.354;4.970;2023-04-08T05:13:42;102486.16;;;7.35;100.00
54172;BME280;40076;52.354;4.970;2023-04-08T05:16:08;102481.03;;;7.33;100.00
54172;BME280;40076;52.354;4.970;2023-04-08T05:18:33;102484.78;;;7.32;100.00
54172;BME280;40076;52.354;4.970;2023-04-08T05:20:58;102484.25;;;7.30;100.00
54172;BME280;40076;52.354;4.970;2023-04-08T05:23:24;102490.13;;;7.27;100.00
54172;BME280;40076;52.354;4.970;2023-04-08T05:25:49;102489.56;;;7.25;100.00
54172;BME280;40076;52.354;4.970;2023-04-08T05:28:14;102492.53;;;7.24;100.00
54172;BME280;40076;52.354;4.970;2023-04-08T05:30:39;102502.19;;;7.25;100.00
54172;BME280;40076;52.354;4.970;2023-04-08T05:33:06;102499.78;;;7.23;100.00
54172;BME280;40076;52.354;4.970;2023-04-08T05:35:31;102496.28;;;7.23;100.00
54172;BME280;40076;52.354;4.970;2023-04-08T05:37:56;102498.16;;;7.22;100.00
54172;BME280;40076;52.354;4.970;2023-04-08T05:40:22;102503.78;;;7.21;100.00
54172;BME280;40076;52.354;4.970;2023-04-08T05:42:47;102512.09;;;7.19;100.00
54172;BME280;40076;52.354;4.970;2023-04-08T05:45:13;102518.28;;;7.20;100.00
54172;BME280;40076;52.354;4.970;2023-04-08T05:47:38;102520.97;;;7.20;100.00
54172;BME280;40076;52.354;4.970;2023-04-08T05:50:07;102521.22;;;7.18;100.00
54172;BME280;40076;52.354;4.970;2023-04-08T05:52:32;102523.91;;;7.18;100.00
54172;BME280;40076;52.354;4.970;2023-04-08T05:54:58;102530.34;;;7.17;100.00
54172;BME280;40076;52.354;4.970;2023-04-08T05:57:23;102536.00;;;7.16;100.00
54172;BME280;40076;52.354;4.970;2023-04-08T05:59:48;102529.81;;;7.15;100.00
54172;BME280;40076;52.354;4.970;2023-04-08T06:02:14;102533.31;;;7.16;100.00
54172;BME280;40076;52.354;4.970;2023-04-08T06:04:39;102539.75;;;7.15;100.00
54172;BME280;40076;52.354;4.970;2023-04-08T06:07:04;102545.13;;;7.15;100.00
54172;BME280;40076;52.354;4.970;2023-04-08T06:09:35;102551.31;;;7.15;100.00
54172;BME280;40076;52.354;4.970;2023-04-08T06:12:01;102552.13;;;7.16;100.00
54172;BME280;40076;52.354;4.970;2023-04-08T06:14:26;102547.56;;;7.16;100.00
54172;BME280;40076;52.354;4.970;2023-04-08T06:16:51;102561.81;;;7.17;100.00
54172;BME280;40076;52.354;4.970;2023-04-08T06:19:18;102557.50;;;7.16;100.00
54172;BME280;40076;52.354;4.970;2023-04-08T06:21:44;102557.50;;;7.16;100.00
54172;BME280;40076;52.354;4.970;2023-04-08T06:24:09;102560.19;;;7.16;100.00
54172;BME280;40076;52.354;4.970;2023-04-08T06:26:34;102557.75;;;7.14;100.00
54172;BME280;40076;52.354;4.970;2023-04-08T06:29:00;102561.50;;;7.13;100.00
54172;BME280;40076;52.354;4.970;2023-04-08T06:31:26;102567.13;;;7.12;100.00
54172;BME280;40076;52.354;4.970;2023-04-08T06:33:51;102568.19;;;7.11;100.00
54172;BME280;40076;52.354;4.970;2023-04-08T06:36:16;102568.72;;;7.08;100.00
54172;BME280;40076;52.354;4.970;2023-04-08T06:38:42;102572.47;;;7.07;100.00
54172;BME280;40076;52.354;4.970;2023-04-08T06:41:07;102577.03;;;7.06;100.00
54172;BME280;40076;52.354;4.970;2023-04-08T06:43:34;102580.19;;;7.03;100.00
54172;BME280;40076;52.354;4.970;2023-04-08T06:46:03;102583.72;;;7.04;100.00
54172;BME280;40076;52.354;4.970;2023-04-08T06:48:28;102588.03;;;7.05;100.00
54172;BME280;40076;52.354;4.970;2023-04-08T06:50:58;102586.16;;;7.05;100.00
54172;BME280;40076;52.354;4.970;2023-04-08T06:53:24;102586.72;;;7.07;100.00
54172;BME280;40076;52.354;4.970;2023-04-08T06:55:49;102584.84;;;7.08;100.00
54172;BME280;40076;52.354;4.970;2023-04-08T06:58:15;102592.66;;;7.09;100.00
54172;BME280;40076;52.354;4.970;2023-04-08T07:00:41;102598.56;;;7.11;100.00
54172;BME280;40076;52.354;4.970;2023-04-08T07:03:06;102605.34;;;7.14;100.00
54172;BME280;40076;52.354;4.970;2023-04-08T07:05:34;102601.25;;;7.11;100.00
54172;BME280;40076;52.354;4.970;2023-04-08T07:08:01;102602.06;;;7.12;100.00
54172;BME280;40076;52.354;4.970;2023-04-08T07:10:26;102609.56;;;7.10;100.00
54172;BME280;40076;52.354;4.970;2023-04-08T07:12:52;102609.31;;;7.11;100.00
54172;BME280;40076;52.354;4.970;2023-04-08T07:15:18;102617.16;;;7.13;100.00
54172;BME280;40076;52.354;4.970;2023-04-08T07:17:43;102618.53;;;7.15;100.00
54172;BME280;40076;52.354;4.970;2023-04-08T07:20:08;102612.09;;;7.16;100.00
54172;BME280;40076;52.354;4.970;2023-04-08T07:22:34;102616.13;;;7.19;100.00
54172;BME280;40076;52.354;4.970;2023-04-08T07:25:00;102618.00;;;7.18;100.00
54172;BME280;40076;52.354;4.970;2023-04-08T07:27:25;102623.69;;;7.22;100.00
54172;BME280;40076;52.354;4.970;2023-04-08T07:29:53;102628.03;;;7.23;100.00
54172;BME280;40076;52.354;4.970;2023-04-08T07:32:19;102628.84;;;7.23;100.00
54172;BME280;40076;52.354;4.970;2023-04-08T07:34:44;102633.94;;;7.25;100.00
54172;BME280;40076;52.354;4.970;2023-04-08T07:37:10;102639.59;;;7.23;100.00
54172;BME280;40076;52.354;4.970;2023-04-08T07:39:37;102640.13;;;7.25;100.00
54172;BME280;40076;52.354;4.970;2023-04-08T07:42:02;102642.56;;;7.27;100.00
54172;BME280;40076;52.354;4.970;2023-04-08T07:44:27;102638.56;;;7.29;100.00
54172;BME280;40076;52.354;4.970;2023-04-08T07:46:52;102635.88;;;7.29;100.00
54172;BME280;40076;52.354;4.970;2023-04-08T07:49:18;102638.31;;;7.31;100.00
54172;BME280;40076;52.354;4.970;2023-04-08T07:51:43;102642.13;;;7.35;100.00
54172;BME280;40076;52.354;4.970;2023-04-08T07:54:08;102646.13;;;7.32;100.00
54172;BME280;40076;52.354;4.970;2023-04-08T07:56:41;102644.00;;;7.34;100.00
54172;BME280;40076;52.354;4.970;2023-04-08T07:59:08;102647.75;;;7.33;100.00
54172;BME280;40076;52.354;4.970;2023-04-08T08:01:33;102646.44;;;7.36;100.00
54172;BME280;40076;52.354;4.970;2023-04-08T08:04:00;102648.31;;;7.35;100.00
54172;BME280;40076;52.354;4.970;2023-04-08T08:06:25;102651.81;;;7.36;100.00
54172;BME280;40076;52.354;4.970;2023-04-08T08:08:52;102650.50;;;7.39;100.00
54172;BME280;40076;52.354;4.970;2023-04-08T08:11:17;102649.94;;;7.36;100.00
54172;BME280;40076;52.354;4.970;2023-04-08T08:13:42;102649.13;;;7.36;100.00
54172;BME280;40076;52.354;4.970;2023-04-08T08:16:07;102656.69;;;7.39;100.00
54172;BME280;40076;52.354;4.970;2023-04-08T08:18:35;102659.94;;;7.41;100.00
54172;BME280;40076;52.354;4.970;2023-04-08T08:21:01;102670.44;;;7.43;100.00
54172;BME280;40076;52.354;4.970;2023-04-08T08:23:26;102669.38;;;7.44;100.00
54172;BME280;40076;52.354;4.970;2023-04-08T08:26:05;102674.75;;;7.44;100.00
54172;BME280;40076;52.354;4.970;2023-04-08T08:28:31;102676.97;;;7.47;100.00
54172;BME280;40076;52.354;4.970;2023-04-08T08:30:57;102673.75;;;7.50;100.00
54172;BME280;40076;52.354;4.970;2023-04-08T08:33:23;102669.75;;;7.52;100.00
54172;BME280;40076;52.354;4.970;2023-04-08T08:35:49;102678.09;;;7.56;100.00
54172;BME280;40076;52.354;4.970;2023-04-08T08:38:14;102674.91;;;7.59;100.00
54172;BME280;40076;52.354;4.970;2023-04-08T08:40:39;102677.38;;;7.60;100.00
54172;BME280;40076;52.354;4.970;2023-04-08T08:43:05;102681.16;;;7.64;100.00
54172;BME280;40076;52.354;4.970;2023-04-08T08:45:32;102684.41;;;7.66;100.00
54172;BME280;40076;52.354;4.970;2023-04-08T08:47:57;102685.50;;;7.70;100.00
54172;BME280;40076;52.354;4.970;2023-04-08T08:50:22;102677.50;;;7.75;100.00
54172;BME280;40076;52.354;4.970;2023-04-08T08:52:49;102674.56;;;7.77;100.00
54172;BME280;40076;52.354;4.970;2023-04-08T08:55:17;102683.19;;;7.79;100.00
54172;BME280;40076;52.354;4.970;2023-04-08T08:57:43;102680.25;;;7.81;100.00
54172;BME280;40076;52.354;4.970;2023-04-08T09:00:09;102673.53;;;7.83;100.00
54172;BME280;40076;52.354;4.970;2023-04-08T09:02:35;102684.59;;;7.87;100.00
54172;BME280;40076;52.354;4.970;2023-04-08T09:05:02;102678.16;;;7.88;100.00
54172;BME280;40076;52.354;4.970;2023-04-08T09:07:29;102683.28;;;7.89;100.00
54172;BME280;40076;52.354;4.970;2023-04-08T09:09:56;102684.09;;;7.90;100.00
54172;BME280;40076;52.354;4.970;2023-04-08T09:12:23;102687.88;;;7.94;100.00
54172;BME280;40076;52.354;4.970;2023-04-08T09:14:49;102689.25;;;7.96;100.00
54172;BME280;40076;52.354;4.970;2023-04-08T09:17:14;102684.19;;;8.00;100.00
54172;BME280;40076;52.354;4.970;2023-04-08T09:20:12;102697.13;;;8.03;100.00
54172;BME280;40076;52.354;4.970;2023-04-08T09:27:49;102689.94;;;8.08;100.00
54172;BME280;40076;52.354;4.970;2023-04-08T09:30:16;102693.97;;;8.11;100.00
54172;BME280;40076;52.354;4.970;2023-04-08T09:32:52;102707.19;;;8.12;100.00
54172;BME280;40076;52.354;4.970;2023-04-08T09:35:18;102693.47;;;8.14;100.00
54172;BME280;40076;52.354;4.970;2023-04-08T09:37:44;102694.28;;;8.14;100.00
54172;BME280;40076;52.354;4.970;2023-04-08T09:40:10;102699.91;;;8.13;100.00
54172;BME280;40076;52.354;4.970;2023-04-08T09:42:39;102706.94;;;8.14;100.00
54172;BME280;40076;52.354;4.970;2023-04-08T09:45:06;102709.09;;;8.17;100.00
54172;BME280;40076;52.354;4.970;2023-04-08T09:47:40;102709.66;;;8.19;100.00
54172;BME280;40076;52.354;4.970;2023-04-08T09:50:07;102709.69;;;8.24;100.00
54172;BME280;40076;52.354;4.970;2023-04-08T09:52:41;102712.44;;;8.29;100.00
54172;BME280;40076;52.354;4.970;2023-04-08T09:55:09;102709.00;;;8.34;100.00
54172;BME280;40076;52.354;4.970;2023-04-08T10:00:13;102713.41;;;8.45;100.00
54172;BME280;40076;52.354;4.970;2023-04-08T10:03:00;102713.16;;;8.46;100.00
54172;BME280;40076;52.354;4.970;2023-04-08T10:05:27;102712.63;;;8.49;100.00
54172;BME280;40076;52.354;4.970;2023-04-08T10:07:57;102710.47;;;8.51;100.00
54172;BME280;40076;52.354;4.970;2023-04-08T10:10:23;102707.25;;;8.55;100.00
54172;BME280;40076;52.354;4.970;2023-04-08T10:12:50;102712.13;;;8.58;100.00
54172;BME280;40076;52.354;4.970;2023-04-08T10:15:28;102703.53;;;8.61;100.00
54172;BME280;40076;52.354;4.970;2023-04-08T10:18:28;102705.19;;;8.67;100.00
54172;BME280;40076;52.354;4.970;2023-04-08T10:20:54;102709.78;;;8.71;100.00
54172;BME280;40076;52.354;4.970;2023-04-08T10:23:52;102708.22;;;8.75;100.00
54172;BME280;40076;52.354;4.970;2023-04-08T10:26:33;102707.69;;;8.78;100.00
54172;BME280;40076;52.354;4.970;2023-04-08T10:29:31;102700.69;;;8.82;100.00
54172;BME280;40076;52.354;4.970;2023-04-08T10:31:56;102702.03;;;8.85;100.00
54172;BME280;40076;52.354;4.970;2023-04-08T10:34:23;102703.66;;;8.86;100.00
54172;BME280;40076;52.354;4.970;2023-04-08T10:36:51;102702.09;;;8.90;100.00
54172;BME280;40076;52.354;4.970;2023-04-08T10:39:17;102700.47;;;8.94;100.00
54172;BME280;40076;52.354;4.970;2023-04-08T10:41:47;102699.97;;;8.97;100.00
54172;BME280;40076;52.354;4.970;2023-04-08T10:46:40;102692.47;;;9.09;100.00
54172;BME280;40076;52.354;4.970;2023-04-08T10:49:05;102695.19;;;9.14;100.00
54172;BME280;40076;52.354;4.970;2023-04-08T10:51:31;102694.66;;;9.17;100.00
54172;BME280;40076;52.354;4.970;2023-04-08T10:54:25;102689.81;;;9.19;100.00
54172;BME280;40076;52.354;4.970;2023-04-08T10:56:51;102690.38;;;9.21;100.00
54172;BME280;40076;52.354;4.970;2023-04-08T10:59:37;102685.81;;;9.27;100.00
54172;BME280;40076;52.354;4.970;2023-04-08T11:02:03;102689.06;;;9.29;100.00
54172;BME280;40076;52.354;4.970;2023-04-08T11:04:29;102683.09;;;9.32;100.00
54172;BME280;40076;52.354;4.970;2023-04-08T11:06:54;102683.41;;;9.36;100.00
54172;BME280;40076;52.354;4.970;2023-04-08T11:09:20;102680.16;;;9.39;100.00
54172;BME280;40076;52.354;4.970;2023-04-08T11:11:45;102676.94;;;9.42;100.00
54172;BME280;40076;52.354;4.970;2023-04-08T11:14:11;102682.88;;;9.44;100.00
54172;BME280;40076;52.354;4.970;2023-04-08T11:16:40;102688.28;;;9.49;100.00
54172;BME280;40076;52.354;4.970;2023-04-08T11:19:06;102686.69;;;9.53;100.00
54172;BME280;40076;52.354;4.970;2023-04-08T11:21:34;102689.91;;;9.55;100.00
54172;BME280;40076;52.354;4.970;2023-04-08T11:24:05;102685.63;;;9.59;100.00
54172;BME280;40076;52.354;4.970;2023-04-08T11:26:31;102685.34;;;9.60;100.00
54172;BME280;40076;52.354;4.970;2023-04-08T11:28:57;102700.19;;;9.63;100.00
54172;BME280;40076;52.354;4.970;2023-04-08T11:31:22;102700.47;;;9.66;100.00
54172;BME280;40076;52.354;4.970;2023-04-08T11:33:52;102704.50;;;9.69;100.00
54172;BME280;40076;52.354;4.970;2023-04-08T11:36:18;102695.34;;;9.70;100.00
54172;BME280;40076;52.354;4.970;2023-04-08T11:38:46;102695.91;;;9.72;100.00
54172;BME280;40076;52.354;4.970;2023-04-08T11:41:12;102700.22;;;9.78;100.00
54172;BME280;40076;52.354;4.970;2023-04-08T11:43:38;102708.88;;;9.80;100.00
54172;BME280;40076;52.354;4.970;2023-04-08T11:46:11;102705.09;;;9.81;100.00
54172;BME280;40076;52.354;4.970;2023-04-08T11:48:37;102706.72;;;9.82;100.00
54172;BME280;40076;52.354;4.970;2023-04-08T11:51:04;102705.66;;;9.83;100.00
54172;BME280;40076;52.354;4.970;2023-04-08T11:53:32;102711.84;;;9.89;100.00
54172;BME280;40076;52.354;4.970;2023-04-08T11:56:14;102703.75;;;9.89;100.00
54172;BME280;40076;52.354;4.970;2023-04-08T11:58:40;102706.44;;;9.94;100.00
54172;BME280;40076;52.354;4.970;2023-04-08T12:01:05;102703.75;;;9.94;100.00
54172;BME280;40076;52.354;4.970;2023-04-08T12:03:30;102705.66;;;9.98;100.00
54172;BME280;40076;52.354;4.970;2023-04-08T12:05:56;102704.28;;;10.01;100.00
54172;BME280;40076;52.354;4.970;2023-04-08T12:08:21;102700.00;;;10.05;100.00
54172;BME280;40076;52.354;4.970;2023-04-08T12:10:46;102701.59;;;10.11;100.00
54172;BME280;40076;52.354;4.970;2023-04-08T12:13:12;102695.69;;;10.14;100.00
54172;BME280;40076;52.354;4.970;2023-04-08T12:15:37;102689.75;;;10.17;100.00
54172;BME280;40076;52.354;4.970;2023-04-08T12:18:02;102690.03;;;10.21;100.00
54172;BME280;40076;52.354;4.970;2023-04-08T12:20:28;102692.97;;;10.24;100.00
54172;BME280;40076;52.354;4.970;2023-04-08T12:22:53;102682.72;;;10.26;100.00
54172;BME280;40076;52.354;4.970;2023-04-08T12:25:18;102692.16;;;10.34;100.00
54172;BME280;40076;52.354;4.970;2023-04-08T12:27:44;102698.63;;;10.38;100.00
54172;BME280;40076;52.354;4.970;2023-04-08T12:30:10;102697.03;;;10.42;100.00
54172;BME280;40076;52.354;4.970;2023-04-08T12:32:35;102694.88;;;10.44;100.00
54172;BME280;40076;52.354;4.970;2023-04-08T12:35:01;102700.25;;;10.49;100.00
54172;BME280;40076;52.354;4.970;2023-04-08T12:37:26;102701.88;;;10.55;100.00
54172;BME280;40076;52.354;4.970;2023-04-08T12:39:51;102705.38;;;10.61;100.00
54172;BME280;40076;52.354;4.970;2023-04-08T12:42:17;102699.97;;;10.66;100.00
54172;BME280;40076;52.354;4.970;2023-04-08T12:44:42;102698.06;;;10.71;100.00
54172;BME280;40076;52.354;4.970;2023-04-08T12:47:10;102696.13;;;10.77;100.00
54172;BME280;40076;52.354;4.970;2023-04-08T12:49:35;102687.50;;;10.80;100.00
54172;BME280;40076;52.354;4.970;2023-04-08T12:52:00;102697.47;;;10.84;100.00
54172;BME280;40076;52.354;4.970;2023-04-08T12:54:26;102694.50;;;10.86;100.00
54172;BME280;40076;52.354;4.970;2023-04-08T12:56:51;102682.34;;;10.89;100.00
54172;BME280;40076;52.354;4.970;2023-04-08T12:59:16;102693.13;;;10.94;100.00